createdAt,value
2019-06-08T00:02:20.844Z,78.10
2019-06-08T00:04:47.375Z,77.90
2019-06-08T00:07:14.621Z,78.00
2019-06-08T00:09:41.236Z,78.20
2019-06-08T00:12:07.763Z,78.10
2019-06-08T00:14:34.285Z,78.00
2019-06-08T00:17:00.871Z,78.10
2019-06-08T00:19:27.353Z,77.80
2019-06-08T00:21:53.919Z,77.90
2019-06-08T00:24:20.428Z,78.20
2019-06-08T00:26:47.128Z,78.00
2019-06-08T00:29:14.137Z,78.20
2019-06-08T00:31:40.685Z,78.10
2019-06-08T00:34:07.319Z,78.20
2019-06-08T00:36:33.850Z,78.20
2019-06-08T00:39:00.427Z,78.10
2019-06-08T00:41:26.955Z,78.10
2019-06-08T00:43:53.501Z,78.10
2019-06-08T00:46:21.331Z,78.10
2019-06-08T00:48:47.953Z,78.20
2019-06-08T00:51:14.594Z,77.80
2019-06-08T00:53:41.117Z,77.90
2019-06-08T00:56:07.664Z,77.80
2019-06-08T00:58:34.196Z,77.80
2019-06-08T01:01:00.815Z,77.70
2019-06-08T01:03:27.350Z,77.90
2019-06-08T01:05:53.886Z,77.80
2019-06-08T01:08:22.085Z,77.80
2019-06-08T01:10:48.874Z,77.20
2019-06-08T01:13:16.060Z,77.10
2019-06-08T01:15:42.593Z,77.10
2019-06-08T01:18:09.120Z,76.70
2019-06-08T01:20:35.643Z,77.20
2019-06-08T01:23:02.169Z,75.70
2019-06-08T01:25:30.042Z,75.50
2019-06-08T01:27:56.660Z,75.00
2019-06-08T01:30:24.229Z,74.70
2019-06-08T01:32:51.856Z,74.30
2019-06-08T01:35:18.500Z,74.20
2019-06-08T01:37:45.033Z,73.80
2019-06-08T01:40:12.650Z,73.60
2019-06-08T01:42:39.178Z,73.40
2019-06-08T01:45:06.530Z,73.00
2019-06-08T01:47:33.175Z,72.70
2019-06-08T01:49:59.740Z,72.60
2019-06-08T01:52:26.625Z,72.60
2019-06-08T01:54:53.198Z,73.10
2019-06-08T01:57:19.722Z,72.60
2019-06-08T01:59:46.266Z,72.70
2019-06-08T02:02:12.794Z,72.70
2019-06-08T02:04:39.329Z,73.00
2019-06-08T02:07:05.903Z,73.10
2019-06-08T02:09:32.779Z,73.10
2019-06-08T02:11:59.346Z,73.20
2019-06-08T02:14:27.095Z,73.30
2019-06-08T02:16:53.741Z,74.00
2019-06-08T02:19:20.277Z,73.20
2019-06-08T02:21:46.802Z,73.00
2019-06-08T02:24:13.327Z,73.20
2019-06-08T02:26:39.856Z,72.90
2019-06-08T02:29:06.394Z,72.60
2019-06-08T02:31:34.786Z,72.60
2019-06-08T02:34:01.363Z,72.60
2019-06-08T02:36:28.897Z,72.40
2019-06-08T02:38:56.407Z,72.10
2019-06-08T02:41:22.920Z,72.10
2019-06-08T02:43:49.453Z,72.10
2019-06-08T02:46:15.983Z,72.10
2019-06-08T02:49:02.689Z,72.10
2019-06-08T02:51:12.021Z,71.90
2019-06-08T02:53:41.406Z,72.00
2019-06-08T02:56:12.073Z,71.90
2019-06-08T02:58:41.117Z,71.90
2019-06-08T03:01:08.246Z,71.90
2019-06-08T03:03:35.832Z,71.80
2019-06-08T03:06:02.821Z,71.70
2019-06-08T03:08:36.138Z,71.90
2019-06-08T03:11:03.892Z,72.10
2019-06-08T03:13:33.577Z,71.80
2019-06-08T03:16:01.719Z,71.80
2019-06-08T03:18:28.303Z,71.90
2019-06-08T03:20:54.872Z,71.80
2019-06-08T03:23:21.396Z,71.80
2019-06-08T03:25:53.046Z,71.90
2019-06-08T03:28:16.356Z,71.90
2019-06-08T03:30:52.943Z,71.80
2019-06-08T03:33:11.326Z,71.80
2019-06-08T03:35:46.586Z,71.80
2019-06-08T03:38:06.308Z,71.70
2019-06-08T03:40:33.902Z,71.70
2019-06-08T03:43:02.817Z,71.60
2019-06-08T03:45:29.351Z,71.70
2019-06-08T03:47:55.875Z,71.60
2019-06-08T03:50:22.435Z,71.60
2019-06-08T03:52:48.957Z,71.50
2019-06-08T03:55:15.708Z,71.30
2019-06-08T03:57:42.229Z,71.20
2019-06-08T04:00:13.602Z,71.10
2019-06-08T04:02:38.373Z,71.20
2019-06-08T04:05:06.143Z,70.70
2019-06-08T04:07:32.787Z,70.70
2019-06-08T04:09:59.317Z,70.50
2019-06-08T04:12:25.838Z,70.20
2019-06-08T04:14:52.359Z,69.80
2019-06-08T04:17:18.907Z,69.50
2019-06-08T04:20:08.606Z,69.30
2019-06-08T04:22:13.857Z,69.30
2019-06-08T04:24:42.317Z,68.80
2019-06-08T04:27:08.861Z,69.20
2019-06-08T04:29:35.398Z,68.80
2019-06-08T04:32:02.049Z,68.70
2019-06-08T04:34:28.573Z,68.60
2019-06-08T04:36:55.094Z,68.70
2019-06-08T04:39:21.609Z,67.50
2019-06-08T04:41:48.146Z,68.00
2019-06-08T04:44:14.692Z,67.70
2019-06-08T04:46:43.028Z,66.40
2019-06-08T04:49:09.647Z,66.10
2019-06-08T04:51:36.174Z,65.60
2019-06-08T04:54:02.799Z,66.30
2019-06-08T04:56:29.322Z,66.40
2019-06-08T04:58:55.878Z,65.20
2019-06-08T05:01:22.431Z,65.30
2019-06-08T05:03:49.955Z,64.80
2019-06-08T05:06:16.843Z,63.50
2019-06-08T05:08:43.373Z,63.00
2019-06-08T05:11:09.901Z,63.60
2019-06-08T05:13:36.417Z,63.90
2019-06-08T05:16:03.210Z,63.90
2019-06-08T05:18:29.813Z,63.70
2019-06-08T05:20:56.328Z,63.20
2019-06-08T05:23:22.869Z,63.00
2019-06-08T05:25:49.465Z,62.80
2019-06-08T05:28:15.988Z,62.80
2019-06-08T05:30:43.221Z,62.90
2019-06-08T05:33:09.847Z,62.80
2019-06-08T05:35:36.392Z,62.40
2019-06-08T05:38:03.997Z,62.90
2019-06-08T05:40:30.514Z,63.20
2019-06-08T05:42:57.056Z,63.50
2019-06-08T05:45:23.593Z,63.40
2019-06-08T05:47:50.242Z,63.60
2019-06-08T05:50:16.864Z,62.80
2019-06-08T05:52:44.201Z,63.40
2019-06-08T05:55:11.043Z,63.30
2019-06-08T05:57:37.605Z,62.60
2019-06-08T06:00:09.435Z,62.40
2019-06-08T06:02:36.187Z,62.30
2019-06-08T06:05:05.204Z,62.10
2019-06-08T06:07:31.733Z,61.90
2019-06-08T06:09:58.252Z,61.20
2019-06-08T06:12:24.893Z,61.40
2019-06-08T06:14:51.413Z,61.20
2019-06-08T06:17:17.956Z,61.40
2019-06-08T06:19:45.185Z,61.30
2019-06-08T06:22:11.769Z,60.90
2019-06-08T06:24:38.700Z,60.70
2019-06-08T06:27:05.222Z,61.10
2019-06-08T06:29:31.853Z,60.50
2019-06-08T06:31:58.383Z,59.70
2019-06-08T06:34:24.966Z,59.80
2019-06-08T06:36:52.194Z,59.70
2019-06-08T06:39:18.972Z,60.00
2019-06-08T06:41:45.968Z,60.00
2019-06-08T06:44:12.660Z,59.30
2019-06-08T06:46:39.742Z,59.10
2019-06-08T06:49:06.287Z,59.20
2019-06-08T06:51:33.988Z,58.30
2019-06-08T06:54:00.647Z,58.00
2019-06-08T06:56:27.167Z,58.00
2019-06-08T06:58:53.873Z,57.60
2019-06-08T07:01:20.583Z,57.70
2019-06-08T07:03:47.969Z,57.30
2019-06-08T07:06:14.578Z,56.10
2019-06-08T07:08:42.089Z,56.30
2019-06-08T07:11:08.666Z,55.30
2019-06-08T07:13:35.191Z,55.70
2019-06-08T07:16:17.230Z,55.40
2019-06-08T07:18:30.325Z,55.30
2019-06-08T07:20:56.835Z,55.20
2019-06-08T07:23:24.108Z,54.50
2019-06-08T07:25:50.678Z,54.10
2019-06-08T07:28:17.267Z,54.80
2019-06-08T07:30:43.793Z,54.50
2019-06-08T07:33:10.310Z,54.10
2019-06-08T07:35:36.900Z,54.00
2019-06-08T07:38:03.547Z,54.20
2019-06-08T07:40:30.102Z,53.30
2019-06-08T07:42:56.868Z,53.90
2019-06-08T07:45:23.549Z,53.70
2019-06-08T07:47:51.924Z,53.40
2019-06-08T07:50:18.591Z,52.90
2019-06-08T07:52:45.122Z,52.60
2019-06-08T07:55:11.960Z,51.90
2019-06-08T07:57:38.474Z,51.90
2019-06-08T08:00:09.594Z,51.90
2019-06-08T08:02:34.748Z,52.10
2019-06-08T08:05:01.692Z,52.40
2019-06-08T08:07:28.220Z,52.50
2019-06-08T08:09:54.906Z,52.40
2019-06-08T08:12:21.488Z,51.90
2019-06-08T08:14:48.737Z,51.20
2019-06-08T08:17:15.389Z,50.70
2019-06-08T08:19:41.935Z,50.40
2019-06-08T08:22:22.346Z,50.60
2019-06-08T08:24:38.680Z,50.80
2019-06-08T08:27:08.180Z,50.20
2019-06-08T08:29:33.785Z,50.40
2019-06-08T08:32:01.815Z,50.30
2019-06-08T08:34:28.652Z,50.80
2019-06-08T08:36:58.150Z,49.90
2019-06-08T08:39:23.894Z,49.50
2019-06-08T08:41:56.323Z,49.50
2019-06-08T08:44:19.182Z,49.20
2019-06-08T08:46:45.733Z,50.00
2019-06-08T08:49:13.254Z,49.40
2019-06-08T08:51:39.773Z,48.00
2019-06-08T08:54:08.552Z,48.80
2019-06-08T08:56:34.724Z,48.50
2019-06-08T08:59:02.744Z,47.60
2019-06-08T09:01:29.480Z,47.20
2019-06-08T09:04:00.940Z,47.00
2019-06-08T09:06:24.447Z,46.50
2019-06-08T09:08:52.007Z,47.10
2019-06-08T09:11:19.024Z,47.10
2019-06-08T09:13:45.546Z,46.50
2019-06-08T09:16:12.074Z,46.40
2019-06-08T09:18:38.622Z,45.90
2019-06-08T09:21:08.113Z,46.40
2019-06-08T09:23:33.840Z,46.40
2019-06-08T09:26:07.628Z,46.00
2019-06-08T09:28:28.897Z,46.60
2019-06-08T09:30:56.738Z,46.20
2019-06-08T09:33:23.938Z,45.60
2019-06-08T09:35:50.495Z,45.70
2019-06-08T09:38:18.597Z,45.80
2019-06-08T09:40:45.348Z,45.90
2019-06-08T09:43:13.180Z,46.60
2019-06-08T09:45:39.949Z,46.10
2019-06-08T09:48:09.236Z,45.60
2019-06-08T09:50:35.002Z,46.80
2019-06-08T09:53:14.839Z,46.40
2019-06-08T09:55:30.037Z,45.70
2019-06-08T09:58:01.868Z,45.70
2019-06-08T10:00:28.831Z,46.20
2019-06-08T10:02:55.200Z,46.00
2019-06-08T10:05:22.381Z,45.70
2019-06-08T10:07:48.905Z,45.20
2019-06-08T10:10:18.229Z,45.10
2019-06-08T10:12:48.155Z,44.80
2019-06-08T10:15:14.183Z,44.60
2019-06-08T10:17:40.724Z,44.70
2019-06-08T10:20:10.058Z,45.40
2019-06-08T10:22:36.388Z,44.30
2019-06-08T10:25:08.735Z,44.20
2019-06-08T10:27:35.014Z,44.20
2019-06-08T10:30:05.828Z,43.60
2019-06-08T10:32:32.889Z,43.50
2019-06-08T10:35:02.217Z,43.90
2019-06-08T10:37:28.438Z,43.90
2019-06-08T10:39:56.451Z,43.60
2019-06-08T10:42:23.453Z,42.70
2019-06-08T10:44:49.997Z,42.90
2019-06-08T10:47:16.541Z,42.30
2019-06-08T10:49:43.057Z,42.40
2019-06-08T10:52:11.792Z,42.60
2019-06-08T10:54:38.113Z,42.10
2019-06-08T10:57:07.227Z,42.90
2019-06-08T10:59:36.515Z,42.10
2019-06-08T11:02:04.960Z,42.00
2019-06-08T11:04:30.156Z,41.70
2019-06-08T11:07:00.700Z,41.50
2019-06-08T11:09:28.331Z,41.20
2019-06-08T11:11:53.714Z,40.80
2019-06-08T11:14:22.758Z,41.50
2019-06-08T11:16:49.550Z,41.40
2019-06-08T11:19:17.986Z,41.20
2019-06-08T11:21:44.524Z,41.30
2019-06-08T11:24:21.525Z,41.30
2019-06-08T11:26:40.369Z,40.60
2019-06-08T11:29:10.339Z,40.10
2019-06-08T11:31:35.492Z,40.50
2019-06-08T11:34:02.680Z,40.30
2019-06-08T11:36:30.400Z,40.30
2019-06-08T11:38:59.222Z,40.40
2019-06-08T11:41:27.910Z,40.70
2019-06-08T11:43:54.518Z,40.70
2019-06-08T11:46:22.088Z,40.80
2019-06-08T11:48:48.811Z,40.30
2019-06-08T11:51:15.339Z,40.00
2019-06-08T11:53:41.879Z,41.20
2019-06-08T11:56:10.023Z,40.30
2019-06-08T11:58:38.558Z,40.90
2019-06-08T12:01:11.595Z,40.90
2019-06-08T12:03:38.563Z,40.20
2019-06-08T12:06:06.180Z,39.60
2019-06-08T12:08:33.250Z,39.60
2019-06-08T12:11:02.077Z,39.10
2019-06-08T12:13:28.245Z,39.80
2019-06-08T12:15:54.858Z,40.20
2019-06-08T12:18:21.385Z,39.80
2019-06-08T12:20:48.815Z,40.60
2019-06-08T12:23:15.552Z,40.10
2019-06-08T12:25:42.081Z,39.80
2019-06-08T12:28:08.617Z,40.00
2019-06-08T12:30:35.138Z,39.40
2019-06-08T12:33:01.676Z,39.40
2019-06-08T12:35:28.412Z,39.80
2019-06-08T12:37:58.104Z,39.40
2019-06-08T12:40:24.619Z,39.20
2019-06-08T12:42:51.471Z,39.60
2019-06-08T12:45:20.005Z,39.50
2019-06-08T12:47:47.897Z,39.00
2019-06-08T12:50:15.330Z,39.10
2019-06-08T12:52:43.298Z,38.80
2019-06-08T12:55:14.344Z,39.50
2019-06-08T12:57:38.758Z,39.00
2019-06-08T13:00:08.466Z,40.30
2019-06-08T13:02:35.609Z,39.60
2019-06-08T13:05:04.937Z,40.00
2019-06-08T13:07:31.468Z,40.00
2019-06-08T13:09:58.392Z,40.20
2019-06-08T13:12:25.029Z,40.00
2019-06-08T13:14:51.698Z,39.60
2019-06-08T13:17:19.880Z,38.80
2019-06-08T13:19:48.199Z,39.50
2019-06-08T13:22:14.934Z,39.30
2019-06-08T13:24:41.552Z,39.40
2019-06-08T13:27:12.174Z,38.70
2019-06-08T13:29:36.512Z,38.70
2019-06-08T13:32:03.128Z,39.00
2019-06-08T13:34:29.662Z,38.00
2019-06-08T13:36:56.182Z,38.80
2019-06-08T13:39:23.230Z,39.60
2019-06-08T13:41:52.059Z,38.80
2019-06-08T13:44:18.316Z,39.40
2019-06-08T13:46:44.866Z,39.70
2019-06-08T13:49:12.257Z,38.10
2019-06-08T13:51:38.854Z,39.30
2019-06-08T13:54:05.379Z,39.40
2019-06-08T13:56:31.932Z,39.70
2019-06-08T13:58:58.454Z,39.20
2019-06-08T14:01:30.375Z,39.50
2019-06-08T14:03:53.702Z,39.40
2019-06-08T14:06:21.791Z,39.70
2019-06-08T14:08:49.849Z,39.60
2019-06-08T14:11:18.738Z,39.50
2019-06-08T14:13:44.865Z,38.40
2019-06-08T14:16:11.783Z,39.00
2019-06-08T14:18:38.627Z,38.50
2019-06-08T14:21:05.313Z,38.00
2019-06-08T14:23:31.829Z,38.60
2019-06-08T14:26:00.237Z,39.10
2019-06-08T14:28:28.995Z,39.40
2019-06-08T14:30:55.237Z,38.90
2019-06-08T14:33:26.735Z,38.90
2019-06-08T14:35:50.277Z,39.10
2019-06-08T14:38:22.505Z,39.80
2019-06-08T14:40:47.393Z,39.70
2019-06-08T14:43:13.826Z,39.10
2019-06-08T14:45:40.369Z,40.30
2019-06-08T14:48:06.930Z,40.40
2019-06-08T14:50:33.854Z,40.00
2019-06-08T14:53:00.376Z,39.40
2019-06-08T14:55:33.241Z,39.60
2019-06-08T14:57:57.853Z,39.60
2019-06-08T15:00:24.497Z,39.50
2019-06-08T15:02:52.121Z,39.20
2019-06-08T15:05:19.888Z,39.50
2019-06-08T15:07:47.796Z,39.00
2019-06-08T15:10:14.674Z,39.00
2019-06-08T15:12:41.193Z,39.00
2019-06-08T15:15:11.041Z,39.30
2019-06-08T15:17:37.964Z,39.40
2019-06-08T15:20:08.645Z,39.90
2019-06-08T15:22:34.617Z,39.10
2019-06-08T15:25:01.365Z,39.00
2019-06-08T15:27:30.417Z,39.80
2019-06-08T15:29:58.517Z,39.10
2019-06-08T15:32:24.912Z,39.40
2019-06-08T15:34:53.165Z,39.70
2019-06-08T15:37:19.685Z,39.40
2019-06-08T15:39:51.167Z,39.20
2019-06-08T15:42:14.639Z,39.00
2019-06-08T15:44:41.234Z,39.40
2019-06-08T15:47:08.196Z,39.20
2019-06-08T15:49:35.103Z,39.40
2019-06-08T15:52:01.671Z,39.00
2019-06-08T15:54:33.575Z,39.40
2019-06-08T15:56:58.517Z,39.00
2019-06-08T15:59:25.067Z,39.60
2019-06-08T16:01:51.598Z,39.10
2019-06-08T16:04:18.112Z,38.80
2019-06-08T16:06:44.703Z,39.10
2019-06-08T16:09:12.205Z,39.40
2019-06-08T16:11:38.742Z,39.60
2019-06-08T16:14:05.466Z,40.40
2019-06-08T16:16:33.378Z,39.70
2019-06-08T16:18:59.975Z,39.70
2019-06-08T16:21:27.308Z,39.40
2019-06-08T16:23:55.842Z,39.60
2019-06-08T16:26:22.762Z,39.90
2019-06-08T16:28:49.287Z,39.80
2019-06-08T16:31:15.832Z,40.20
2019-06-08T16:33:44.242Z,40.20
2019-06-08T16:36:10.826Z,40.30
2019-06-08T16:38:38.340Z,40.60
2019-06-08T16:41:05.000Z,41.30
2019-06-08T16:43:32.970Z,41.30
2019-06-08T16:45:59.552Z,41.20
2019-06-08T16:48:26.078Z,41.50
2019-06-08T16:50:59.588Z,41.60
2019-06-08T16:53:27.350Z,41.80
2019-06-08T16:55:54.054Z,42.20
2019-06-08T16:58:20.627Z,42.40
2019-06-08T17:00:59.936Z,42.50
2019-06-08T17:03:40.743Z,42.80
2019-06-08T17:06:07.303Z,42.80
2019-06-08T17:08:37.029Z,43.10
2019-06-08T17:11:02.286Z,43.30
2019-06-08T17:13:30.051Z,43.20
2019-06-08T17:15:56.760Z,43.50
2019-06-08T17:18:23.306Z,43.70
2019-06-08T17:20:49.834Z,43.30
2019-06-08T17:23:17.065Z,43.30
2019-06-08T17:25:45.797Z,43.50
2019-06-08T17:28:12.318Z,43.70
2019-06-08T17:30:39.400Z,44.10
2019-06-08T17:33:06.097Z,44.00
2019-06-08T17:35:35.560Z,44.10
2019-06-08T17:38:02.375Z,44.20
2019-06-08T17:40:28.884Z,44.40
2019-06-08T17:42:55.641Z,44.50
2019-06-08T17:45:25.079Z,44.60
2019-06-08T17:47:53.523Z,44.90
2019-06-08T17:50:20.250Z,44.90
2019-06-08T17:52:48.951Z,44.70
2019-06-08T17:55:26.029Z,44.90
2019-06-08T17:57:54.579Z,44.90
2019-06-08T18:00:21.846Z,45.00
2019-06-08T18:02:48.505Z,45.00
2019-06-08T18:05:17.723Z,45.10
2019-06-08T18:07:45.678Z,45.60
2019-06-08T18:10:12.613Z,45.10
2019-06-08T18:12:42.569Z,45.30
2019-06-08T18:15:11.593Z,45.40
2019-06-08T18:17:42.628Z,45.70
2019-06-08T18:20:13.335Z,46.00
2019-06-08T18:22:42.520Z,46.40
2019-06-08T18:25:10.189Z,46.40
2019-06-08T18:27:39.147Z,46.30
2019-06-08T18:30:08.968Z,46.60
2019-06-08T18:32:40.544Z,47.30
2019-06-08T18:35:07.801Z,47.40
2019-06-08T18:37:34.862Z,47.30
2019-06-08T18:40:07.208Z,47.20
2019-06-08T18:42:35.280Z,47.80
2019-06-08T18:45:04.799Z,47.30
2019-06-08T18:47:31.329Z,47.70
2019-06-08T18:49:57.915Z,47.30
2019-06-08T18:52:24.445Z,47.40
2019-06-08T18:54:50.971Z,47.50
2019-06-08T18:57:17.705Z,47.70
2019-06-08T18:59:48.674Z,47.80
2019-06-08T19:02:12.884Z,47.90
2019-06-08T19:04:41.545Z,47.90
2019-06-08T19:07:08.022Z,48.10
2019-06-08T19:09:37.489Z,48.10
2019-06-08T19:12:03.921Z,48.70
2019-06-08T19:14:30.658Z,48.10
2019-06-08T19:16:58.315Z,48.30
2019-06-08T19:19:24.864Z,48.20
2019-06-08T19:21:51.382Z,48.10
2019-06-08T19:24:18.423Z,48.50
2019-06-08T19:26:45.929Z,49.00
2019-06-08T19:29:13.622Z,48.40
2019-06-08T19:31:42.316Z,48.50
2019-06-08T19:34:08.576Z,48.50
2019-06-08T19:36:35.098Z,48.50
2019-06-08T19:39:01.721Z,48.60
2019-06-08T19:41:28.464Z,48.60
2019-06-08T19:43:55.034Z,48.60
2019-06-08T19:46:21.609Z,48.70
2019-06-08T19:48:53.868Z,48.80
2019-06-08T19:51:17.162Z,49.00
2019-06-08T19:53:46.585Z,49.20
2019-06-08T19:56:12.290Z,49.50
2019-06-08T19:58:53.523Z,49.90
2019-06-08T20:01:07.448Z,50.00
2019-06-08T20:03:33.994Z,50.30
2019-06-08T20:06:00.519Z,50.40
2019-06-08T20:08:28.586Z,50.50
2019-06-08T20:10:57.416Z,50.70
2019-06-08T20:13:23.964Z,50.80
2019-06-08T20:15:57.130Z,51.00
2019-06-08T20:18:18.918Z,51.10
2019-06-08T20:20:46.533Z,51.30
2019-06-08T20:23:13.890Z,51.40
2019-06-08T20:25:41.092Z,51.60
2019-06-08T20:28:08.014Z,51.70
2019-06-08T20:30:34.692Z,51.70
2019-06-08T20:33:01.221Z,51.80
2019-06-08T20:35:28.161Z,51.80
2019-06-08T20:37:55.131Z,51.80
2019-06-08T20:40:28.251Z,51.90
2019-06-08T20:42:54.823Z,51.90
2019-06-08T20:45:21.335Z,52.00
2019-06-08T20:47:51.067Z,52.00
2019-06-08T20:50:17.660Z,52.00
2019-06-08T20:52:44.438Z,52.00
2019-06-08T20:55:11.107Z,51.80
2019-06-08T20:57:37.647Z,51.80
2019-06-08T21:00:09.224Z,51.90
2019-06-08T21:02:37.100Z,52.00
2019-06-08T21:05:07.660Z,52.20
2019-06-08T21:07:34.021Z,52.30
2019-06-08T21:10:00.549Z,52.30
2019-06-08T21:12:28.333Z,52.30
2019-06-08T21:14:55.507Z,52.50
2019-06-08T21:17:22.137Z,52.30
2019-06-08T21:19:48.853Z,52.30
2019-06-08T21:22:15.394Z,52.30
2019-06-08T21:24:41.921Z,52.40
2019-06-08T21:27:08.448Z,52.50
2019-06-08T21:29:47.453Z,52.50
2019-06-08T21:32:03.440Z,52.60
2019-06-08T21:34:29.976Z,52.60
2019-06-08T21:37:00.537Z,52.70
2019-06-08T21:39:24.940Z,52.70
2019-06-08T21:41:54.878Z,52.90
2019-06-08T21:44:19.907Z,53.00
2019-06-08T21:46:48.685Z,53.80
2019-06-08T21:49:14.864Z,53.20
2019-06-08T21:51:41.483Z,53.30
2019-06-08T21:54:08.012Z,53.40
2019-06-08T21:56:36.931Z,54.20
2019-06-08T21:59:03.088Z,53.60
2019-06-08T22:01:30.809Z,53.90
2019-06-08T22:03:58.989Z,53.90
2019-06-08T22:06:25.775Z,54.00
2019-06-08T22:08:52.308Z,54.00
2019-06-08T22:11:18.850Z,54.10
2019-06-08T22:13:47.475Z,54.10
2019-06-08T22:16:13.952Z,54.10
2019-06-08T22:18:41.434Z,54.10
2019-06-08T22:21:08.325Z,54.20
2019-06-08T22:23:34.882Z,54.40
2019-06-08T22:26:01.419Z,54.50
2019-06-08T22:28:27.938Z,54.70
2019-06-08T22:30:56.173Z,54.80
2019-06-08T22:33:22.967Z,54.90
2019-06-08T22:35:49.491Z,55.10
2019-06-08T22:38:17.718Z,55.20
2019-06-08T22:40:44.348Z,55.30
2019-06-08T22:43:10.969Z,55.10
2019-06-08T22:45:37.695Z,55.20
2019-06-08T22:48:04.294Z,55.40
2019-06-08T22:50:30.870Z,55.50
2019-06-08T22:52:59.509Z,55.40
2019-06-08T22:55:27.817Z,55.50
2019-06-08T22:57:55.326Z,55.60
2019-06-08T23:00:24.811Z,55.70
2019-06-08T23:02:50.429Z,55.90
2019-06-08T23:05:18.581Z,56.00
2019-06-08T23:07:45.411Z,56.10
2019-06-08T23:10:12.531Z,56.10
2019-06-08T23:12:39.063Z,56.20
2019-06-08T23:15:07.790Z,56.20
2019-06-08T23:17:34.421Z,56.40
2019-06-08T23:20:03.587Z,56.40
2019-06-08T23:22:30.187Z,56.40
2019-06-08T23:24:59.382Z,56.50
2019-06-08T23:27:27.042Z,56.60
2019-06-08T23:29:53.571Z,56.70
2019-06-08T23:32:20.113Z,56.70
2019-06-08T23:34:47.811Z,56.70
2019-06-08T23:37:14.530Z,56.90
2019-06-08T23:39:41.117Z,56.90
2019-06-08T23:42:08.062Z,56.80
2019-06-08T23:44:34.690Z,56.80
2019-06-08T23:47:02.734Z,57.00
2019-06-08T23:49:29.337Z,57.10
2019-06-08T23:51:58.127Z,57.10
2019-06-08T23:54:24.312Z,57.10
2019-06-08T23:56:50.853Z,57.30
2019-06-08T23:59:17.872Z,57.40
